createdAt,value
2022-12-20T00:00:42.365Z,60.13
2022-12-20T00:03:46.341Z,60.90
2022-12-20T00:06:49.360Z,59.10
2022-12-20T00:09:33.770Z,59.55
2022-12-20T00:12:24.335Z,63.83
2022-12-20T00:15:08.283Z,62.88
2022-12-20T00:17:35.417Z,64.72
2022-12-20T00:20:02.441Z,65.88
2022-12-20T00:22:29.753Z,64.40
2022-12-20T00:24:56.961Z,69.88
2022-12-20T00:27:24.255Z,60.40
2022-12-20T00:30:11.351Z,63.42
2022-12-20T00:32:56.807Z,63.65
2022-12-20T00:35:57.346Z,61.10
2022-12-20T00:38:36.905Z,63.42
2022-12-20T00:41:12.021Z,62.08
2022-12-20T00:43:40.106Z,60.85
2022-12-20T00:46:09.114Z,63.83
2022-12-20T00:48:36.652Z,61.65
2022-12-20T00:51:09.188Z,60.95
2022-12-20T00:53:37.208Z,64.93
2022-12-20T00:56:05.776Z,63.55
2022-12-20T00:58:35.608Z,64.20
2022-12-20T01:01:06.552Z,64.22
2022-12-20T01:03:34.305Z,67.18
2022-12-20T01:06:16.428Z,61.67
2022-12-20T01:12:18.452Z,59.75
2022-12-20T01:15:20.415Z,62.65
2022-12-20T01:18:01.058Z,59.92
2022-12-20T01:20:28.359Z,60.60
2022-12-20T01:22:55.595Z,59.60
2022-12-20T01:25:42.397Z,61.30
2022-12-20T01:28:23.103Z,56.50
2022-12-20T01:31:03.517Z,62.45
2022-12-20T01:33:45.203Z,59.63
2022-12-20T01:36:16.875Z,61.13
2022-12-20T01:38:44.233Z,61.08
2022-12-20T01:41:22.945Z,65.38
2022-12-20T01:44:38.718Z,63.17
2022-12-20T01:50:31.403Z,63.08
2022-12-20T01:53:26.987Z,64.15
2022-12-20T01:56:00.618Z,59.28
2022-12-20T01:58:40.593Z,62.58
2022-12-20T02:01:22.967Z,65.25
2022-12-20T02:04:15.755Z,64.45
2022-12-20T02:07:10.450Z,63.72
2022-12-20T02:14:07.559Z,63.50
2022-12-20T02:17:21.666Z,62.22
2022-12-20T02:20:25.249Z,64.53
2022-12-20T02:23:53.998Z,67.03
2022-12-20T02:27:18.970Z,61.65
2022-12-20T02:30:42.680Z,62.75
2022-12-20T02:33:28.752Z,67.40
2022-12-20T02:35:59.669Z,64.03
2022-12-20T02:41:32.154Z,66.53
2022-12-20T02:47:54.618Z,66.07
2022-12-20T02:50:33.318Z,64.07
2022-12-20T02:56:19.221Z,67.68
2022-12-20T02:59:42.424Z,66.40
2022-12-20T03:14:29.756Z,68.55
2022-12-20T03:17:14.374Z,69.13
2022-12-20T03:19:54.026Z,66.18
2022-12-20T03:22:43.527Z,69.10
2022-12-20T03:25:24.571Z,66.30
2022-12-20T03:27:53.678Z,71.32
2022-12-20T03:31:07.309Z,70.75
2022-12-20T03:34:24.794Z,68.82
2022-12-20T03:37:08.076Z,67.85
2022-12-20T03:40:02.596Z,73.30
2022-12-20T03:42:38.747Z,67.15
2022-12-20T03:45:31.999Z,66.80
2022-12-20T03:48:46.741Z,67.43
2022-12-20T03:51:26.422Z,70.90
2022-12-20T03:54:22.777Z,67.22
2022-12-20T03:57:13.684Z,69.28
2022-12-20T04:00:00.101Z,69.93
2022-12-20T04:02:55.700Z,70.57
2022-12-20T04:05:36.300Z,74.35
2022-12-20T04:08:23.459Z,66.80
2022-12-20T04:11:19.292Z,67.85
2022-12-20T04:14:14.427Z,73.13
2022-12-20T04:16:56.132Z,71.90
2022-12-20T04:19:24.114Z,71.07
2022-12-20T04:21:51.232Z,74.07
2022-12-20T04:24:20.072Z,71.78
2022-12-20T04:27:13.107Z,71.72
2022-12-20T04:30:00.440Z,70.50
2022-12-20T04:32:54.829Z,75.28
2022-12-20T04:35:22.978Z,69.82
2022-12-20T04:37:50.508Z,72.38
2022-12-20T04:40:17.704Z,72.60
2022-12-20T04:43:07.463Z,64.10
2022-12-20T04:46:09.598Z,70.47
2022-12-20T04:48:57.892Z,67.38
2022-12-20T04:51:26.479Z,68.50
2022-12-20T04:53:53.699Z,62.72
2022-12-20T04:56:28.930Z,65.45
2022-12-20T04:59:03.441Z,67.32
2022-12-20T05:01:31.481Z,66.95
2022-12-20T05:03:58.679Z,62.08
2022-12-20T05:06:45.483Z,67.50
2022-12-20T05:09:26.291Z,64.30
2022-12-20T05:11:55.326Z,62.80
2022-12-20T05:14:22.393Z,67.47
2022-12-20T05:17:09.504Z,65.43
2022-12-20T05:19:50.155Z,59.83
2022-12-20T05:22:35.773Z,57.88
2022-12-20T05:25:49.871Z,59.05
2022-12-20T05:28:30.831Z,58.30
2022-12-20T05:31:17.521Z,56.20
2022-12-20T05:33:58.100Z,55.20
2022-12-20T05:36:30.000Z,59.60
2022-12-20T05:39:03.917Z,60.80
2022-12-20T05:41:32.887Z,56.53
2022-12-20T05:44:00.964Z,58.92
2022-12-20T05:46:42.581Z,60.85
2022-12-20T05:49:48.502Z,56.30
2022-12-20T05:52:30.303Z,56.33
2022-12-20T05:54:57.299Z,57.05
2022-12-20T05:57:45.539Z,56.28
2022-12-20T06:00:35.164Z,53.80
2022-12-20T06:03:02.357Z,59.83
2022-12-20T06:05:33.110Z,58.78
2022-12-20T06:08:21.526Z,58.35
2022-12-20T06:11:18.318Z,56.20
2022-12-20T06:13:51.183Z,54.72
2022-12-20T06:16:20.907Z,56.42
2022-12-20T06:18:48.107Z,54.22
2022-12-20T06:21:16.483Z,58.92
2022-12-20T06:23:44.579Z,60.65
2022-12-20T06:26:13.664Z,52.45
2022-12-20T06:28:52.777Z,55.10
2022-12-20T06:31:48.608Z,54.63
2022-12-20T06:34:29.276Z,55.13
2022-12-20T06:36:56.492Z,55.20
2022-12-20T06:39:27.195Z,58.00
2022-12-20T06:42:02.921Z,59.80
2022-12-20T06:44:30.495Z,60.33
2022-12-20T06:46:57.652Z,55.78
2022-12-20T06:49:45.830Z,59.65
2022-12-20T06:53:00.601Z,54.50
2022-12-20T06:56:02.502Z,60.45
2022-12-20T06:58:43.294Z,57.03
2022-12-20T07:01:10.283Z,58.67
2022-12-20T07:03:37.440Z,58.28
2022-12-20T07:06:24.581Z,55.88
2022-12-20T07:09:20.982Z,58.00
2022-12-20T07:11:47.846Z,58.70
2022-12-20T07:14:14.918Z,62.08
2022-12-20T07:17:01.668Z,57.67
2022-12-20T07:19:47.189Z,57.08
2022-12-20T07:22:17.689Z,55.65
2022-12-20T07:25:04.521Z,58.60
2022-12-20T07:27:52.172Z,56.17
2022-12-20T07:33:20.465Z,56.08
2022-12-20T07:35:53.992Z,57.55
2022-12-20T07:38:22.782Z,55.80
2022-12-20T07:40:50.028Z,58.33
2022-12-20T07:43:17.038Z,56.47
2022-12-20T07:46:10.612Z,57.90
2022-12-20T07:49:12.564Z,57.13
2022-12-20T07:51:57.713Z,56.83
2022-12-20T07:54:30.378Z,58.10
2022-12-20T07:57:24.646Z,60.75
2022-12-20T08:00:26.685Z,60.05
2022-12-20T08:03:23.492Z,55.50
2022-12-20T08:05:54.005Z,57.08
2022-12-20T08:08:41.563Z,56.47
2022-12-20T08:11:24.540Z,54.85
2022-12-20T08:13:57.533Z,57.72
2022-12-20T08:16:45.596Z,55.53
2022-12-20T08:19:32.049Z,58.88
2022-12-20T08:21:59.794Z,52.40
2022-12-20T08:24:26.872Z,54.67
2022-12-20T08:26:53.935Z,56.30
2022-12-20T08:30:40.061Z,56.53
2022-12-20T08:42:28.453Z,56.70
2022-12-20T08:53:20.723Z,56.70
2022-12-20T08:56:37.579Z,57.75
2022-12-20T08:59:06.481Z,54.90
2022-12-20T09:01:39.952Z,57.22
2022-12-20T09:04:37.655Z,57.33
2022-12-20T09:07:53.614Z,52.13
2022-12-20T09:11:21.380Z,53.58
2022-12-20T09:14:22.524Z,53.30
2022-12-20T09:16:57.187Z,55.85
2022-12-20T09:19:25.959Z,55.33
2022-12-20T09:21:56.529Z,51.13
2022-12-20T09:24:24.389Z,55.95
2022-12-20T09:27:06.866Z,57.60
2022-12-20T09:29:52.953Z,50.35
2022-12-20T09:32:54.419Z,56.08
2022-12-20T09:36:16.034Z,52.92
2022-12-20T09:38:48.773Z,54.70
2022-12-20T09:42:02.841Z,57.17
2022-12-20T09:45:21.676Z,54.80
2022-12-20T09:48:26.484Z,51.80
2022-12-20T09:51:39.696Z,52.80
2022-12-20T09:54:54.400Z,51.70
2022-12-20T09:58:14.695Z,50.60
2022-12-20T10:01:05.423Z,51.92
2022-12-20T10:03:36.278Z,53.13
2022-12-20T10:07:00.816Z,50.38
2022-12-20T10:10:18.670Z,49.90
2022-12-20T10:13:35.957Z,53.97
2022-12-20T10:17:17.839Z,52.13
2022-12-20T10:20:23.152Z,47.38
2022-12-20T10:23:13.691Z,47.30
2022-12-20T10:25:42.561Z,48.58
2022-12-20T10:28:17.118Z,49.95
2022-12-20T10:31:07.783Z,52.80
2022-12-20T10:33:48.408Z,51.65
2022-12-20T10:36:19.585Z,50.85
2022-12-20T10:38:50.525Z,50.47
2022-12-20T10:41:29.799Z,44.55
2022-12-20T10:43:59.559Z,46.80
2022-12-20T10:46:45.771Z,53.50
2022-12-20T10:49:47.683Z,49.50
2022-12-20T10:52:28.293Z,47.97
2022-12-20T10:54:55.533Z,51.65
2022-12-20T10:57:26.358Z,51.78
2022-12-20T10:59:57.796Z,48.00
2022-12-20T11:02:42.005Z,46.85
2022-12-20T11:05:37.001Z,45.13
2022-12-20T11:08:46.787Z,44.15
2022-12-20T11:11:34.563Z,44.13
2022-12-20T11:14:15.997Z,46.42
2022-12-20T11:16:53.452Z,47.25
2022-12-20T11:20:00.685Z,47.90
2022-12-20T11:23:10.649Z,42.28
2022-12-20T11:26:19.246Z,42.88
2022-12-20T11:29:08.294Z,43.47
2022-12-20T11:32:30.698Z,47.50
2022-12-20T11:35:23.775Z,46.60
2022-12-20T11:38:39.363Z,40.30
2022-12-20T11:42:03.825Z,46.85
2022-12-20T11:45:33.656Z,44.30
2022-12-20T11:48:36.994Z,44.95
2022-12-20T11:51:21.461Z,47.55
2022-12-20T11:54:27.301Z,46.00
2022-12-20T11:58:02.091Z,46.70
2022-12-20T12:00:42.273Z,42.03
2022-12-20T12:03:27.385Z,45.10
2022-12-20T12:06:23.848Z,45.70
2022-12-20T12:09:47.090Z,50.65
2022-12-20T12:12:34.419Z,45.20
2022-12-20T12:15:39.563Z,46.25
2022-12-20T12:18:21.628Z,46.05
2022-12-20T12:20:57.067Z,48.75
2022-12-20T12:23:50.213Z,49.03
2022-12-20T12:26:24.782Z,46.38
2022-12-20T12:29:00.634Z,47.05
2022-12-20T12:32:00.885Z,47.95
2022-12-20T12:35:44.056Z,43.10
2022-12-20T12:39:01.995Z,44.33
2022-12-20T12:41:36.160Z,46.33
2022-12-20T12:44:41.558Z,47.88
2022-12-20T12:47:26.937Z,46.80
2022-12-20T12:50:01.344Z,50.95
2022-12-20T12:52:54.617Z,46.60
2022-12-20T12:56:12.776Z,49.65
2022-12-20T12:59:41.571Z,46.83
2022-12-20T13:02:28.995Z,50.85
2022-12-20T13:05:52.051Z,46.13
2022-12-20T13:09:23.567Z,45.90
2022-12-20T13:12:41.154Z,42.35
2022-12-20T13:22:57.927Z,41.85
2022-12-20T13:25:55.709Z,38.03
2022-12-20T13:28:25.130Z,38.17
2022-12-20T13:34:59.054Z,39.25
2022-12-20T13:37:55.018Z,39.53
2022-12-20T13:41:26.832Z,42.95
2022-12-20T13:46:58.726Z,38.08
2022-12-20T13:54:26.869Z,57.67
2022-12-20T13:57:43.557Z,42.42
2022-12-20T14:00:40.048Z,38.00
2022-12-20T16:43:37.011Z,36.13
2022-12-20T16:46:06.491Z,30.67
2022-12-20T16:48:33.951Z,30.02
2022-12-20T16:51:01.138Z,35.88
2022-12-20T16:53:34.469Z,34.53
2022-12-20T16:56:11.030Z,33.70
2022-12-20T16:59:18.653Z,37.60
2022-12-20T17:02:35.986Z,33.92
2022-12-20T17:05:32.055Z,32.13
2022-12-20T17:14:44.004Z,27.40
2022-12-20T17:28:04.080Z,30.70
2022-12-20T17:51:17.552Z,29.30
2022-12-20T17:54:39.559Z,28.80
2022-12-20T17:57:25.208Z,29.85
2022-12-20T18:00:39.316Z,30.35
2022-12-20T18:04:23.147Z,30.27
2022-12-20T18:07:32.036Z,30.98
2022-12-20T18:10:51.015Z,30.13
2022-12-20T18:20:58.559Z,31.33
2022-12-20T18:27:30.594Z,31.38
2022-12-20T18:30:33.995Z,27.67
2022-12-20T18:33:16.665Z,30.63
2022-12-20T18:36:29.255Z,30.40
2022-12-20T18:41:53.783Z,29.80
2022-12-20T18:48:02.129Z,29.13
2022-12-20T18:50:40.202Z,29.02
2022-12-20T18:54:03.938Z,28.77
2022-12-20T18:56:59.658Z,28.50
2022-12-20T19:00:04.276Z,26.65
2022-12-20T19:02:37.418Z,29.63
2022-12-20T19:05:28.592Z,30.52
2022-12-20T19:08:52.372Z,29.75
2022-12-20T19:14:44.365Z,26.60
2022-12-20T19:17:47.032Z,29.48
2022-12-20T19:26:45.642Z,28.88
2022-12-20T19:29:46.288Z,29.83
2022-12-20T19:32:27.462Z,26.45
2022-12-20T19:35:55.349Z,28.55
2022-12-20T19:42:13.967Z,27.92
2022-12-20T19:45:01.303Z,30.98
2022-12-20T19:47:49.030Z,29.23
2022-12-20T19:56:35.581Z,30.88
2022-12-20T19:59:35.130Z,29.60
2022-12-20T20:03:07.570Z,30.50
2022-12-20T20:05:48.082Z,29.42
2022-12-20T20:08:38.319Z,31.40
2022-12-20T20:17:47.863Z,28.88
2022-12-20T20:21:02.423Z,30.52
2022-12-20T20:23:45.935Z,29.90
2022-12-20T20:35:58.572Z,27.20
2022-12-20T20:38:50.243Z,28.83
2022-12-20T20:45:28.922Z,30.40
2022-12-20T20:48:12.961Z,31.30
2022-12-20T20:51:25.796Z,33.00
2022-12-20T20:54:29.265Z,29.70
2022-12-20T20:57:16.423Z,29.73
2022-12-20T21:00:39.368Z,31.67
2022-12-20T21:13:28.611Z,33.85
2022-12-20T21:16:19.805Z,32.00
2022-12-20T21:19:27.814Z,34.88
2022-12-20T21:22:55.999Z,33.85
2022-12-20T21:46:19.137Z,30.55
2022-12-20T21:48:47.076Z,34.60
2022-12-20T21:51:19.247Z,32.28
2022-12-20T21:54:11.153Z,33.90
2022-12-20T21:57:12.096Z,31.90
2022-12-20T21:59:39.363Z,33.85
2022-12-20T22:02:06.896Z,36.13
2022-12-20T22:04:36.429Z,32.63
2022-12-20T22:07:24.078Z,34.30
2022-12-20T22:10:04.905Z,36.40
2022-12-20T22:12:31.837Z,35.28
2022-12-20T22:14:58.835Z,36.65
2022-12-20T22:17:46.101Z,35.13
2022-12-20T22:20:26.608Z,35.88
2022-12-20T22:22:54.342Z,37.95
2022-12-20T22:25:21.497Z,36.17
2022-12-20T22:27:48.476Z,37.30
2022-12-20T22:30:15.586Z,37.78
2022-12-20T22:33:03.080Z,36.92
2022-12-20T22:36:04.103Z,36.92
2022-12-20T22:38:45.135Z,37.38
2022-12-20T22:41:37.093Z,39.58
2022-12-20T22:44:17.854Z,36.80
2022-12-20T22:46:44.713Z,40.53
2022-12-20T22:49:16.942Z,39.72
2022-12-20T22:51:46.692Z,39.20
2022-12-20T22:54:18.344Z,37.10
2022-12-20T22:56:45.353Z,39.97
2022-12-20T22:59:12.378Z,40.67
2022-12-20T23:01:39.561Z,40.78
2022-12-20T23:04:08.668Z,40.25
2022-12-20T23:06:56.097Z,43.22
2022-12-20T23:09:36.683Z,36.83
2022-12-20T23:12:22.190Z,39.10
2022-12-20T23:15:07.722Z,38.83
2022-12-20T23:17:34.732Z,37.95
2022-12-20T23:20:20.840Z,40.08
2022-12-20T23:22:47.917Z,38.67
2022-12-20T23:25:50.138Z,38.78
2022-12-20T23:28:51.161Z,37.55
2022-12-20T23:31:52.183Z,42.17
2022-12-20T23:34:32.712Z,39.83
2022-12-20T23:36:59.756Z,41.05
2022-12-20T23:39:26.787Z,39.92
2022-12-20T23:41:53.814Z,40.42
2022-12-20T23:44:20.869Z,36.53
2022-12-20T23:47:08.176Z,39.58
2022-12-20T23:50:09.149Z,37.88
2022-12-20T23:52:49.618Z,37.08
2022-12-20T23:55:16.634Z,37.38
2022-12-20T23:57:43.703Z,36.92
